Have a Safe July 4th! 

Flight Track Log - Related Links

Times and Time Zones

All times are in EDT time to prevent confusion due to time zone crossing. See the GJS3618 flight status page for this flight to view local times or setup timezone preferences in your user account.

Time Position Orientation Groundspeed Altitude Reporting Facility
EDT Latitude Longitude Course Direction KTS MPH feet Rate Location/Type
Tue 09:17:08 AM 41.9333 -87.8833 90° East 180 207 2,400  Level Chicago TRACON
Tue 09:18:08 AM 41.9333 -87.8000 90° East 274 315 4,700 1,075 Climbing Chicago TRACON
Tue 09:19:00 AM 41.9568 -87.4446 95° East  Level FlightAware Approximate
Tue 09:20:00 AM 41.9457 -87.2934 96° East  Level FlightAware Approximate
Tue 09:20:29 AM 41.9714 -87.5675 78° East 294 338 6,000  Level Chicago Center
Tue 09:21:00 AM 41.9340 -87.1423 96° East  Level FlightAware Approximate
Tue 09:21:30 AM 42.0292 -87.4789 49° Northeast 315 362 8,900  Level Chicago Center
Tue 09:22:00 AM 41.9333 -86.9904 90° East  Level FlightAware Approximate
Tue 09:22:32 AM 42.0322 -87.3589 88° East 332 382 11,900  Level Chicago Center
Tue 09:23:34 AM 42.0247 -87.2081 94° East 339 390 15,000 2,032 Climbing Chicago Center
Tue 09:24:36 AM 42.0186 -87.0789 94° East 346 398 16,100 1,645 Climbing Chicago Center
Tue 09:25:38 AM 42.0086 -86.9403 95° East 371 427 18,400 2,081 Climbing Chicago Center
Tue 09:26:40 AM 42.0006 -86.7939 94° East 392 451 20,400 1,935 Climbing Chicago Center
Tue 09:27:42 AM 41.9894 -86.6453 96° East 405 466 22,400 1,258 Climbing Chicago Center
Tue 09:28:44 AM 41.9758 -86.4903 97° East 414 476 23,000 290 Climbing Chicago Center
Tue 09:29:46 AM 41.9633 -86.3028 95° East 420 483 23,000  Level Chicago Center
Tue 09:30:48 AM 41.9453 -86.1483 99° East 421 484 23,000 194 Level Chicago Center
Tue 09:31:50 AM 41.8997 -86.0056 113° Southeast 424 488 23,400 1,065 Climbing Chicago Center
Tue 09:32:52 AM 41.8367 -85.8692 122° Southeast 433 498 25,200 1,742 Climbing Chicago Center
Tue 09:33:54 AM 41.7747 -85.7342 122° Southeast 429 494 27,000 1,694 Climbing Chicago Center
Tue 09:34:56 AM 41.7167 -85.6011 120° Southeast 422 486 28,700 1,403 Climbing Chicago Center
Tue 09:35:58 AM 41.7194 -85.4272 89° East 416 479 29,900 1,065 Climbing Chicago Center
Tue 09:37:00 AM 41.7336 -85.2775 83° East 427 491 30,900 532 Climbing Chicago Center
Tue 09:38:02 AM 41.7492 -85.1158 83° East 434 499 31,000 48 Climbing Chicago Center
Tue 09:39:04 AM 41.7692 -84.9186 82° East 444 511 31,000 339 Level Chicago Center
Tue 09:40:06 AM 41.7847 -84.7547 83° East 444 511 31,700 772 Climbing Chicago Center
Tue 09:40:45 AM 41.7939 -84.6556 83° East 445 512 32,300 788 Climbing Cleveland Center
Tue 09:41:45 AM 41.8119 -84.4894 82° East 433 498 33,000 350 Climbing Cleveland Center
Tue 09:42:45 AM 41.8258 -84.3258 83° East 439 505 33,000  Level Cleveland Center
Tue 09:43:45 AM 41.8400 -84.1481 84° East 439 505 33,000  Level Cleveland Center
Tue 09:44:45 AM 41.8531 -83.9872 84° East 439 505 33,000  Level Cleveland Center
Tue 09:46:18 AM 41.8772 -83.7439 82° East 433 498 33,000  Level Chicago Center
Tue 09:46:45 AM 41.8831 -83.6650 84° East 439 505 33,000 345 Level Cleveland Center
Tue 09:47:45 AM 41.8978 -83.4983 83° East 439 505 33,500 750 Climbing Cleveland Center
Tue 09:48:45 AM 41.9125 -83.3317 83° East 446 513 34,500 1,000 Climbing Cleveland Center
Tue 09:49:45 AM 41.9247 -83.1619 84° East 446 513 35,500 1,000 Climbing Cleveland Center
Tue 09:50:45 AM 41.9367 -82.9922 85° East 446 513 36,500 750 Climbing Cleveland Center
Tue 09:51:45 AM 41.9525 -82.8281 83° East 446 513 37,000 250 Climbing Cleveland Center
Tue 09:52:45 AM 41.9722 -82.6722 80° East 454 522 37,000  Level Cleveland Center
Tue 09:53:45 AM 41.9939 -82.5025 80° East 459 528 37,000 50 Level Cleveland Center
Tue 09:54:45 AM 42.0133 -82.3325 81° East 464 534 37,100  Climbing Cleveland Center
Tue 09:55:45 AM 42.0408 -82.1656 77° East 464 534 37,000 -50 Descending Cleveland Center
Tue 09:56:45 AM 42.1011 -82.0047 63° Northeast 445 512 37,000  Level Cleveland Center
Tue 09:57:45 AM 42.1592 -81.8606 61° Northeast 437 503 37,000  Level Cleveland Center
Tue 09:58:45 AM 42.2128 -81.7158 63° Northeast 432 497 37,000  Level Cleveland Center
Tue 09:59:45 AM 42.2664 -81.5708 63° Northeast 432 497 37,000  Level Cleveland Center
Tue 10:00:45 AM 42.3236 -81.4256 62° Northeast 425 489 37,000  Level Cleveland Center
Tue 10:01:45 AM 42.3539 -81.2603 76° East 425 489 37,000  Level Cleveland Center
Tue 10:02:45 AM 42.3672 -81.0975 84° East 434 499 37,000  Level Cleveland Center
Tue 10:03:45 AM 42.3806 -80.9458 83° East 450 518 37,000  Level Cleveland Center
Tue 10:04:45 AM 42.3956 -80.7744 83° East 453 521 37,000  Level Cleveland Center
Tue 10:05:45 AM 42.4103 -80.6028 83° East 453 521 37,000  Level Cleveland Center
Tue 10:06:45 AM 42.4225 -80.4342 84° East 458 527 37,000  Level Cleveland Center
Tue 10:07:45 AM 42.4369 -80.2653 83° East 459 528 37,000  Level Cleveland Center
Tue 10:08:45 AM 42.4467 -80.0881 86° East 464 534 37,000  Level Cleveland Center
Tue 10:09:45 AM 42.4644 -79.9019 83° East 464 534 37,000  Level Cleveland Center
Tue 10:10:45 AM 42.4778 -79.7303 84° East 464 534 37,000  Level Cleveland Center
Tue 10:11:45 AM 42.4889 -79.5583 85° East 464 534 37,000  Level Cleveland Center
Tue 10:12:45 AM 42.5019 -79.3833 84° East 464 534 37,000  Level Cleveland Center
Tue 10:13:45 AM 42.5125 -79.2114 85° East 464 534 37,000  Level Cleveland Center
Tue 10:14:45 AM 42.5250 -79.0364 84° East 464 534 37,000  Level Cleveland Center
Tue 10:15:45 AM 42.5372 -78.8672 84° East 459 528 37,000 -350 Level Cleveland Center
Tue 10:16:45 AM 42.5447 -78.6950 87° East 459 528 36,300 -850 Descending Cleveland Center
Tue 10:17:45 AM 42.5564 -78.5256 85° East 459 528 35,300 -1,000 Descending Cleveland Center
Tue 10:18:45 AM 42.5678 -78.3531 85° East 459 528 34,300 -1,000 Descending Cleveland Center
Tue 10:19:45 AM 42.5769 -78.1808 86° East 459 528 33,300 -1,000 Descending Cleveland Center
Tue 10:20:45 AM 42.5878 -78.0111 85° East 459 528 32,300 -1,000 Descending Cleveland Center
Tue 10:21:45 AM 42.5964 -77.8417 86° East 454 522 31,300 -650 Descending Cleveland Center
Tue 10:22:45 AM 42.6053 -77.6917 85° East 454 522 31,000 -150 Descending Cleveland Center
Tue 10:23:45 AM 42.6133 -77.5219 86° East 448 516 31,000 -551 Level Cleveland Center
Tue 10:26:01 AM 42.6333 -77.1228 86° East 470 541 29,200 -609 Descending Boston Center
Tue 10:27:02 AM 42.6422 -76.9486 86° East 464 534 29,000 -99 Descending Boston Center
Tue 10:28:02 AM 42.6511 -76.7739 86° East 458 527 29,000  Level Boston Center
Tue 10:29:02 AM 42.6578 -76.6022 87° East 458 527 29,000  Level Boston Center
Tue 10:30:01 AM 42.6658 -76.4303 86° East 458 527 29,000 -150 Level Boston Center
Tue 10:31:02 AM 42.6739 -76.2614 86° East 458 527 28,700 -992 Descending Boston Center
Tue 10:32:02 AM 42.6814 -76.0922 86° East 458 527 27,000 -1,600 Descending Boston Center
Tue 10:33:02 AM 42.6844 -75.9314 88° East 448 516 25,500 -1,850 Descending Boston Center
Tue 10:34:02 AM 42.6919 -75.7511 87° East 433 498 23,300 -2,000 Descending Boston Center
Tue 10:35:02 AM 42.6964 -75.5931 88° East 422 486 21,500 -1,800 Descending Boston Center
Tue 10:36:02 AM 42.7025 -75.4436 87° East 416 479 19,700 -1,800 Descending Boston Center
Tue 10:37:02 AM 42.7086 -75.2942 87° East 403 464 17,900 -1,650 Descending Boston Center
Tue 10:38:02 AM 42.7119 -75.1500 88° East 393 452 16,400 -1,650 Descending Boston Center
Tue 10:39:02 AM 42.7172 -75.0089 87° East 380 437 14,600 -1,815 Descending Boston Center
Tue 10:40:01 AM 42.7222 -74.8792 87° East 363 418 12,800 -1,700 Descending Boston Center
Tue 10:41:02 AM 42.7225 -74.7633 90° East 333 383 11,200 -1,308 Descending Boston Center
Tue 10:41:19 AM 42.7253 -74.7294 84° East 291 335 11,100 -200 Descending Boston Center
Tue 10:42:02 AM 42.7267 -74.6617 88° East 294 338 11,000  Descending Boston Center
Tue 10:42:20 AM 42.7275 -74.6222 88° East 283 326 11,100  Climbing Boston Center
Tue 10:43:13 AM 42.7289 -74.5458 89° East 284 327 11,000 -584 Descending Boston Center
Tue 10:44:13 AM 42.7333 -74.4189 87° East 284 327 10,000 -1,190 Descending Boston Center
Tue 10:45:14 AM 42.7369 -74.3200 87° East 273 314 8,600 -1,488 Descending Boston Center
Tue 10:46:14 AM 42.7386 -74.2267 89° East 249 287 7,000 -1,520 Descending Boston Center
Tue 10:46:29 AM 42.7411 -74.2014 82° East 247 284 6,700 -1,333 Descending Boston Center
Tue 10:47:26 AM 42.7403 -74.1250 91° East 244 281 5,400 -1,500 Descending Boston Center
Tue 10:47:41 AM 42.7406 -74.0967 89° East 239 275 4,900 -1,300 Descending Boston Center
Tue 10:48:26 AM 42.7519 -74.0319 77° East 232 267 4,100 -787 Descending Boston Center
Tue 10:48:42 AM 42.7708 -74.0211 23° Northeast 228 262 4,100 -100 Level Boston Center
Tue 10:49:26 AM 42.8067 -73.9939 29° Northeast 199 229 4,000 -577 Descending Boston Center
Tue 10:50:26 AM 42.8550 -73.9639 24° Northeast 205 236 3,100 -500 Descending Boston Center
Tue 10:51:26 AM 42.8664 -73.8875 78° East 177 204 3,000 -252 Descending Boston Center
Tue 10:52:25 AM 42.8608 -73.8194 96° East 177 204 2,600 -456 Descending Boston Center
Tue 10:52:45 AM 42.8444 -73.8136 165° South 158 182 2,400 -295 Descending Boston Center
Tue 10:53:26 AM 42.8447 -73.7739 89° East 154 177 2,300 -1,000 Descending Boston Center
Tue 10:53:51 AM 42.7986 -73.8097 210° Southwest 139 160 1,300 -1,275 Descending Boston Center
Tue 10:54:46 AM 42.7653 -73.8061 175° South 121 139 600 -764 Descending Boston Center
Tue 10:57:00 AM 42.7491 -73.8020 174° South  Level Estimated
Tue 11:04:00 AM 42.7491 -73.8020 174° South  Level Estimated
Tue 11:05:00 AM 42.7491 -73.8020 174° South  Level Estimated

Login

Don't have an account? Register now (free) for customized features, flight alerts, and more!